Time;durP1;ratioP1;P1;durP2;ratioP2;P2;SDS_P1;SDS_P2;PMS_P1;PMS_P2;Temp;Humidity;BMP_temperature;BMP_pressure;BME280_temperature;BME280_humidity;BME280_pressure;Samples;Min_cycle;Max_cycle;Signal;HPM_P1;HPM_P2
2022/07/12 00:02:49;;;;;;;0.70;0.50;;;10.50;99.90;;;;;;8300163;28;20190;-65
2022/07/12 00:06:49;;;;;;;0.90;0.70;;;10.40;1.00;;;;;;8319252;28;20202;-65
2022/07/12 00:10:50;;;;;;;2.40;0.70;;;10.40;1.00;;;;;;8322251;28;20182;-65
2022/07/12 00:14:51;;;;;;;0.57;0.53;;;10.30;99.90;;;;;;8306351;28;20245;-66
2022/07/12 00:18:53;;;;;;;1.80;0.60;;;10.30;1.00;;;;;;8301942;28;20175;-67
2022/07/12 00:22:54;;;;;;;1.27;0.80;;;10.20;99.90;;;;;;8304228;28;20313;-66
2022/07/12 00:26:55;;;;;;;1.33;0.60;;;10.20;99.90;;;;;;8305935;28;20252;-67
2022/07/12 00:30:56;;;;;;;1.30;0.60;;;10.20;99.90;;;;;;8304553;28;20244;-67
2022/07/12 00:34:56;;;;;;;1.37;0.70;;;10.10;99.90;;;;;;8301272;28;20220;-66
2022/07/12 00:38:58;;;;;;;1.03;0.60;;;10.00;1.00;;;;;;8308225;28;20182;-66
2022/07/12 00:42:58;;;;;;;0.80;0.70;;;9.90;99.90;;;;;;8316854;28;20186;-65
2022/07/12 00:47:01;;;;;;;0.60;0.60;;;9.80;1.00;;;;;;8303476;28;20193;-66
2022/07/12 00:51:02;;;;;;;1.70;0.70;;;9.70;1.00;;;;;;8310940;28;20207;-66
2022/07/12 00:55:05;;;;;;;0.80;0.70;;;9.70;1.00;;;;;;8303019;28;20233;-66
2022/07/12 00:59:05;;;;;;;1.33;0.70;;;9.60;99.90;;;;;;8303785;28;20191;-65
2022/07/12 01:03:06;;;;;;;1.67;0.80;;;9.60;99.90;;;;;;8305931;28;20198;-66
2022/07/12 01:07:07;;;;;;;1.00;0.70;;;9.50;99.90;;;;;;8314260;28;20206;-65
2022/07/12 01:11:08;;;;;;;0.97;0.77;;;9.60;99.90;;;;;;8305867;28;20190;-66
2022/07/12 01:15:09;;;;;;;0.70;0.67;;;9.70;1.00;;;;;;8315411;28;20248;-65
2022/07/12 01:19:17;;;;;;;1.70;0.80;;;9.80;1.00;;;;;;8309423;28;20182;-66
2022/07/12 01:23:18;;;;;;;0.67;0.60;;;10.00;99.90;;;;;;8302783;28;20201;-66
2022/07/12 01:27:19;;;;;;;0.90;0.70;;;10.10;1.00;;;;;;8300921;28;20190;-65
2022/07/12 01:31:20;;;;;;;0.80;0.80;;;10.10;99.90;;;;;;8302231;28;20275;-67
2022/07/12 01:35:21;;;;;;;1.90;0.87;;;10.20;99.90;;;;;;8304096;28;20217;-66
2022/07/12 01:39:22;;;;;;;0.87;0.63;;;10.30;99.90;;;;;;8314871;28;20190;-65
2022/07/12 01:43:23;;;;;;;1.60;0.80;;;10.30;99.90;;;;;;8308842;28;20183;-65
2022/07/12 01:47:26;;;;;;;1.17;0.60;;;10.30;99.90;;;;;;8307395;28;20221;-65
2022/07/12 01:51:27;;;;;;;1.30;0.63;;;10.30;1.00;;;;;;8303207;28;20206;-65
2022/07/12 01:55:29;;;;;;;1.73;0.60;;;10.30;99.90;;;;;;8299612;28;20203;-65
2022/07/12 01:59:30;;;;;;;1.13;0.90;;;10.40;99.90;;;;;;8300870;28;20265;-65
2022/07/12 02:03:35;;;;;;;2.07;0.80;;;10.40;1.00;;;;;;8299551;28;20202;-66
2022/07/12 02:07:36;;;;;;;0.90;0.70;;;10.40;99.90;;;;;;8302270;28;20195;-65
2022/07/12 02:11:37;;;;;;;2.53;0.83;;;10.40;99.90;;;;;;8301465;28;20274;-66
2022/07/12 02:15:38;;;;;;;0.80;0.70;;;10.40;99.90;;;;;;8296295;28;20215;-65
2022/07/12 02:19:38;;;;;;;1.00;0.60;;;10.30;99.90;;;;;;8303103;28;20184;-65
2022/07/12 02:23:39;;;;;;;1.47;0.87;;;10.20;99.90;;;;;;8308941;28;20186;-65
2022/07/12 02:27:40;;;;;;;0.90;0.80;;;10.10;1.00;;;;;;8301673;28;20202;-66
2022/07/12 02:31:41;;;;;;;0.60;0.50;;;10.00;1.00;;;;;;8299665;28;20191;-65
2022/07/12 02:35:42;;;;;;;1.67;0.87;;;9.90;63.90;;;;;;8309018;28;20214;-65
2022/07/12 02:39:43;;;;;;;2.13;0.83;;;9.90;99.90;;;;;;8307665;28;20186;-66
2022/07/12 02:43:44;;;;;;;1.93;0.90;;;9.80;99.90;;;;;;8310166;28;20215;-66
2022/07/12 02:47:44;;;;;;;1.47;0.90;;;9.80;99.90;;;;;;8304856;28;20186;-65
2022/07/12 02:51:45;;;;;;;0.80;0.80;;;9.70;99.90;;;;;;8310917;28;20292;-66
2022/07/12 02:55:46;;;;;;;0.93;0.83;;;9.70;99.90;;;;;;8303623;28;20218;-65
2022/07/12 02:59:47;;;;;;;1.60;1.00;;;9.60;99.90;;;;;;8310544;28;20211;-65
2022/07/12 03:03:48;;;;;;;1.00;0.80;;;9.60;99.90;;;;;;8307014;28;20195;-65
2022/07/12 03:07:48;;;;;;;0.80;0.80;;;9.70;99.90;;;;;;8308192;28;20286;-65
2022/07/12 03:11:49;;;;;;;1.13;0.90;;;9.70;99.90;;;;;;8308932;28;20201;-65
2022/07/12 03:15:50;;;;;;;1.20;1.00;;;9.70;99.90;;;;;;8306032;28;20214;-65
2022/07/12 03:19:51;;;;;;;1.30;0.90;;;9.80;99.90;;;;;;8306658;28;20202;-65
2022/07/12 03:23:51;;;;;;;1.20;1.00;;;9.90;99.90;;;;;;8310175;28;20187;-65
2022/07/12 03:27:54;;;;;;;1.67;1.03;;;9.90;99.90;;;;;;8307788;28;20252;-65
2022/07/12 03:31:54;;;;;;;1.00;0.90;;;10.00;99.90;;;;;;8304562;28;20190;-66
2022/07/12 03:35:55;;;;;;;1.33;1.00;;;10.10;99.90;;;;;;8307394;28;20203;-65
2022/07/12 03:39:56;;;;;;;1.03;0.87;;;10.20;99.90;;;;;;8306894;28;20182;-65
2022/07/12 03:43:57;;;;;;;1.97;1.20;;;10.20;61.90;;;;;;8306687;28;20190;-65
2022/07/12 03:47:58;;;;;;;1.30;1.20;;;11.30;99.90;;;;;;8306235;28;20195;-66
2022/07/12 03:51:58;;;;;;;1.33;0.90;;;13.30;1.00;;;;;;8305204;28;20206;-65
2022/07/12 03:55:59;;;;;;;1.20;0.70;;;15.30;99.90;;;;;;8307208;28;20202;-65
2022/07/12 04:00:00;;;;;;;1.90;0.83;;;16.80;21.50;;;;;;8301334;28;20202;-66
2022/07/12 04:04:02;;;;;;;1.53;0.80;;;18.00;99.90;;;;;;8303056;28;20198;-66
2022/07/12 04:08:03;;;;;;;2.43;0.83;;;19.10;99.90;;;;;;8308397;28;20237;-66
2022/07/12 04:12:05;;;;;;;2.03;0.97;;;20.00;79.00;;;;;;8306651;28;20194;-66
2022/07/12 04:16:06;;;;;;;1.93;1.03;;;20.50;4.00;;;;;;8327414;28;20222;-66
2022/07/12 04:20:07;;;;;;;2.17;0.90;;;21.10;1.00;;;;;;8337557;28;20304;-72
2022/07/12 04:24:08;;;;;;;1.37;0.87;;;20.90;1.00;;;;;;8304358;28;20197;-66
2022/07/12 04:28:09;;;;;;;1.50;0.87;;;20.30;1.00;;;;;;8308756;28;20657;-66
2022/07/12 04:32:10;;;;;;;2.30;1.00;;;20.00;1.00;;;;;;8311856;28;20190;-71
2022/07/12 04:36:11;;;;;;;1.10;0.77;;;20.20;1.00;;;;;;8300369;28;20237;-68
2022/07/12 04:40:12;;;;;;;3.47;0.87;;;20.50;1.00;;;;;;8299879;28;20187;-70
2022/07/12 04:44:12;;;;;;;1.83;0.80;;;20.20;1.00;;;;;;8294827;28;20195;-69
2022/07/12 04:48:13;;;;;;;2.67;0.83;;;20.00;1.00;;;;;;8298588;28;20274;-67
2022/07/12 04:52:14;;;;;;;2.27;0.97;;;19.90;1.00;;;;;;8303634;28;20680;-69
2022/07/12 04:56:15;;;;;;;2.70;1.00;;;19.80;6.30;;;;;;8307683;28;20186;-67
2022/07/12 05:00:15;;;;;;;1.43;0.60;;;19.80;3.20;;;;;;8306514;28;20194;-66
2022/07/12 05:04:16;;;;;;;6.00;0.80;;;19.60;20.60;;;;;;8319181;28;20190;-67
2022/07/12 05:08:17;;;;;;;3.77;0.80;;;19.70;29.30;;;;;;8304960;28;20210;-67
2022/07/12 05:12:18;;;;;;;1.77;0.70;;;19.50;20.90;;;;;;8303101;28;20191;-68
2022/07/12 05:16:19;;;;;;;1.50;0.90;;;18.40;99.10;;;;;;8303389;28;20194;-67
2022/07/12 05:20:20;;;;;;;1.33;0.83;;;17.50;99.90;;;;;;8301619;28;20182;-66
2022/07/12 05:24:20;;;;;;;1.53;0.70;;;16.90;99.90;;;;;;8307122;28;20269;-66
2022/07/12 05:28:21;;;;;;;1.30;0.90;;;16.60;99.90;;;;;;8304909;28;20434;-66
2022/07/12 05:32:23;;;;;;;1.40;0.80;;;16.60;99.90;;;;;;8300588;28;20328;-67
2022/07/12 05:36:24;;;;;;;2.03;0.97;;;16.70;99.90;;;;;;8302780;28;20192;-68
2022/07/12 05:40:25;;;;;;;1.50;0.60;;;16.90;99.90;;;;;;8298347;28;20191;-66
2022/07/12 05:44:25;;;;;;;2.80;0.70;;;17.00;99.90;;;;;;8292593;28;20699;-64
2022/07/12 05:48:26;;;;;;;1.10;0.67;;;17.20;99.90;;;;;;8300741;28;20284;-67
2022/07/12 05:56:46;;;;;;;1.03;0.53;;;17.50;99.90;;;;;;8310832;28;20313;-68
2022/07/12 06:00:47;;;;;;;6.63;0.80;;;17.70;99.90;;;;;;8343063;28;20494;-65
2022/07/12 06:04:48;;;;;;;0.97;0.50;;;17.80;99.90;;;;;;8307746;28;20194;-67
2022/07/12 06:08:49;;;;;;;2.03;0.80;;;18.00;99.90;;;;;;8312544;28;20205;-66
2022/07/12 06:12:50;;;;;;;2.47;0.70;;;18.20;99.90;;;;;;8309181;28;20341;-68
2022/07/12 06:16:50;;;;;;;1.40;0.67;;;18.40;99.90;;;;;;8312316;28;20265;-67
2022/07/12 06:20:51;;;;;;;0.93;0.50;;;18.50;98.00;;;;;;8317804;28;20198;-70
2022/07/12 06:24:52;;;;;;;2.73;0.73;;;18.40;99.90;;;;;;8324864;28;20190;-67
2022/07/12 06:28:53;;;;;;;3.33;0.87;;;18.60;99.20;;;;;;8337906;28;20187;-67
2022/07/12 06:32:54;;;;;;;1.53;0.90;;;18.50;81.70;;;;;;8307060;28;20210;-66
2022/07/12 06:36:54;;;;;;;4.03;1.20;;;18.60;89.10;;;;;;8329789;28;20193;-68
2022/07/12 06:40:55;;;;;;;2.27;1.47;;;18.70;74.30;;;;;;8306187;28;20274;-68
2022/07/12 06:44:56;;;;;;;5.63;1.60;;;18.90;26.20;;;;;;8312606;28;20190;-67
2022/07/12 06:48:57;;;;;;;2.00;1.60;;;19.00;14.40;;;;;;8340609;28;20281;-67
2022/07/12 06:52:57;;;;;;;2.77;1.40;;;19.00;22.90;;;;;;8310337;28;20214;-69
2022/07/12 06:56:58;;;;;;;1.90;1.30;;;19.20;18.80;;;;;;8309733;28;20722;-67
2022/07/12 07:00:59;;;;;;;2.80;1.57;;;19.30;1.00;;;;;;8308343;28;20182;-67
2022/07/12 07:05:00;;;;;;;1.67;1.30;;;19.50;1.00;;;;;;8310035;28;20285;-65
2022/07/12 07:09:00;;;;;;;2.70;1.40;;;19.50;1.00;;;;;;8302706;28;20252;-68
2022/07/12 07:13:01;;;;;;;3.53;1.30;;;19.60;1.00;;;;;;8306795;28;20206;-69
2022/07/12 07:17:02;;;;;;;1.97;1.23;;;19.70;1.00;;;;;;8315800;28;20189;-65
2022/07/12 07:21:03;;;;;;;2.77;1.30;;;20.00;1.00;;;;;;8312470;28;20214;-69
2022/07/12 07:25:04;;;;;;;2.47;1.40;;;20.20;1.00;;;;;;8306327;28;20202;-69
2022/07/12 07:33:26;;;;;;;2.83;1.10;;;19.80;1.00;;;;;;8302360;28;20206;-69
2022/07/12 07:37:26;;;;;;;2.57;1.40;;;19.90;1.00;;;;;;8316071;28;20205;-65
2022/07/12 07:41:27;;;;;;;3.40;1.50;;;19.70;1.00;;;;;;8315043;28;20190;-68
2022/07/12 07:45:28;;;;;;;2.43;1.03;;;19.80;1.00;;;;;;8340224;28;20206;-68
2022/07/12 07:49:29;;;;;;;2.93;1.03;;;19.90;1.00;;;;;;8314719;28;20266;-66
2022/07/12 07:53:29;;;;;;;3.83;1.10;;;20.10;1.00;;;;;;8305860;28;20236;-67
2022/07/12 07:57:30;;;;;;;1.77;1.20;;;20.20;1.00;;;;;;8308819;28;20209;-67
2022/07/12 08:01:48;;;;;;;2.67;1.17;;;20.20;1.00;;;;;;8309880;28;20301;-69
2022/07/12 08:05:50;;;;;;;6.13;1.30;;;20.30;1.00;;;;;;8306192;28;20202;-65
2022/07/12 08:09:51;;;;;;;1.70;1.30;;;20.40;1.00;;;;;;8336294;28;20193;-67
2022/07/12 08:13:52;;;;;;;2.97;1.17;;;20.30;1.00;;;;;;8309426;28;20213;-69
2022/07/12 08:17:53;;;;;;;3.63;1.40;;;20.40;1.00;;;;;;8303975;28;20229;-66
2022/07/12 08:21:53;;;;;;;1.97;1.27;;;20.70;1.00;;;;;;8299284;28;20183;-67
2022/07/12 08:25:54;;;;;;;1.27;0.90;;;20.80;1.00;;;;;;8314670;28;20201;-66
2022/07/12 08:29:55;;;;;;;2.93;0.80;;;20.80;1.00;;;;;;8331149;28;20187;-69
2022/07/12 08:33:56;;;;;;;2.47;1.00;;;20.80;1.00;;;;;;8300173;28;20268;-71
2022/07/12 08:37:57;;;;;;;0.80;0.40;;;20.50;1.00;;;;;;8332725;28;20183;-66
2022/07/12 08:41:57;;;;;;;3.10;0.53;;;20.50;1.00;;;;;;8305623;28;20469;-70
2022/07/12 08:46:03;;;;;;;2.30;0.50;;;20.60;1.00;;;;;;8302359;28;20221;-68
2022/07/12 08:50:19;;;;;;;2.30;0.37;;;20.70;1.00;;;;;;8314506;28;20234;-67
2022/07/12 08:54:19;;;;;;;1.83;0.60;;;21.00;1.00;;;;;;8303822;28;20218;-71
2022/07/12 08:58:20;;;;;;;5.00;0.50;;;21.40;1.00;;;;;;8322169;28;20254;-66
2022/07/12 09:02:21;;;;;;;0.80;0.40;;;21.70;1.00;;;;;;8331081;28;20219;-69
2022/07/12 09:06:22;;;;;;;0.60;0.33;;;22.10;1.00;;;;;;8294832;28;20213;-66
2022/07/12 09:10:23;;;;;;;1.43;0.40;;;22.10;1.00;;;;;;8312429;28;20198;-70
2022/07/12 09:14:26;;;;;;;1.80;0.47;;;21.80;1.00;;;;;;8305362;28;20222;-69
2022/07/12 09:18:28;;;;;;;0.73;0.40;;;21.70;1.00;;;;;;8314291;28;20190;-67
2022/07/12 09:22:29;;;;;;;1.23;0.40;;;21.70;1.00;;;;;;8306764;28;20277;-69
2022/07/12 09:26:32;;;;;;;1.37;0.60;;;22.10;1.00;;;;;;8302510;28;20205;-69
2022/07/12 09:30:34;;;;;;;0.60;0.30;;;22.30;1.00;;;;;;8331228;28;20197;-67
2022/07/12 09:39:00;;;;;;;1.27;0.30;;;21.80;1.00;;;;;;8309873;28;20237;-67
2022/07/12 09:43:05;;;;;;;1.50;0.43;;;22.00;1.00;;;;;;8308103;28;20249;-69
2022/07/12 09:47:15;;;;;;;2.47;0.40;;;21.90;1.00;;;;;;8304315;28;20270;-66
2022/07/12 09:51:17;;;;;;;1.47;0.30;;;22.10;1.00;;;;;;8301857;28;20206;-68
2022/07/12 09:55:19;;;;;;;1.50;0.40;;;22.30;1.00;;;;;;8304810;28;20234;-68
2022/07/12 09:59:23;;;;;;;1.13;0.50;;;22.50;1.00;;;;;;8307514;28;20186;-68
2022/07/12 10:03:27;;;;;;;0.60;0.30;;;22.70;1.00;;;;;;8335816;28;20516;-68
2022/07/12 10:07:29;;;;;;;0.60;0.40;;;22.30;1.00;;;;;;8303207;28;20209;-67
2022/07/12 10:11:30;;;;;;;2.40;0.67;;;22.20;1.00;;;;;;8303159;28;20209;-66
2022/07/12 10:15:32;;;;;;;0.50;0.30;;;22.30;1.00;;;;;;8335841;28;20211;-68
2022/07/12 10:19:35;;;;;;;0.77;0.30;;;22.40;1.00;;;;;;8298281;28;20206;-68
2022/07/12 10:23:36;;;;;;;2.63;0.30;;;22.00;1.00;;;;;;8305500;28;20198;-66
2022/07/12 10:27:37;;;;;;;1.27;0.50;;;22.10;1.00;;;;;;8302256;28;20297;-68
2022/07/12 10:31:40;;;;;;;2.10;0.40;;;22.50;1.00;;;;;;8301619;28;20191;-68
2022/07/12 10:35:57;;;;;;;1.43;0.20;;;22.90;1.00;;;;;;8306907;28;20217;-66
2022/07/12 10:40:27;;;;;;;1.17;0.30;;;22.60;1.00;;;;;;8304305;28;20187;-69
2022/07/12 10:44:36;;;;;;;1.63;0.40;;;23.20;1.00;;;;;;8304042;28;20202;-66
2022/07/12 10:48:36;;;;;;;0.77;0.30;;;23.40;1.00;;;;;;8309841;28;20193;-66
2022/07/12 10:52:37;;;;;;;2.30;0.40;;;23.40;1.00;;;;;;8343768;28;20230;-67
2022/07/12 10:56:56;;;;;;;3.13;0.50;;;23.30;1.00;;;;;;8306645;28;20184;-72
2022/07/12 11:01:04;;;;;;;1.43;0.37;;;23.50;1.00;;;;;;8310052;28;20183;-67
2022/07/12 11:05:06;;;;;;;3.23;0.50;;;23.40;1.00;;;;;;8310255;28;20198;-66
2022/07/12 11:09:11;;;;;;;1.83;0.13;;;22.80;1.00;;;;;;8304159;28;20228;-65
2022/07/12 11:13:25;;;;;;;1.33;0.50;;;22.50;1.00;;;;;;8334094;28;20250;-66
2022/07/12 11:17:27;;;;;;;2.20;0.30;;;22.70;1.00;;;;;;8305054;28;20179;-69
2022/07/12 11:21:28;;;;;;;0.30;0.20;;;23.30;1.00;;;;;;8310237;28;20298;-66
2022/07/12 11:25:30;;;;;;;0.77;0.30;;;23.60;1.00;;;;;;8334934;28;20190;-68
2022/07/12 11:29:32;;;;;;;0.70;0.40;;;23.20;1.00;;;;;;8315545;28;20197;-64
2022/07/12 11:33:35;;;;;;;1.80;0.20;;;22.80;1.00;;;;;;8308525;28;20195;-68
2022/07/12 11:37:46;;;;;;;0.60;0.20;;;22.90;1.00;;;;;;8307066;28;20206;-67
2022/07/12 11:41:57;;;;;;;0.50;0.10;;;23.80;1.00;;;;;;8307911;28;20232;-65
2022/07/12 11:45:59;;;;;;;0.73;0.30;;;23.90;1.00;;;;;;8310207;28;20194;-66
2022/07/12 11:49:59;;;;;;;1.77;0.40;;;23.70;1.00;;;;;;8334801;28;20191;-63
2022/07/12 11:54:00;;;;;;;0.37;0.10;;;23.50;1.00;;;;;;8305216;28;20265;-67
2022/07/12 11:58:05;;;;;;;1.03;0.20;;;23.40;1.00;;;;;;8325344;28;20178;-67
2022/07/12 12:02:11;;;;;;;2.67;1.10;;;23.10;1.00;;;;;;8337813;28;20187;-64
2022/07/12 12:06:12;;;;;;;0.63;0.10;;;22.80;1.00;;;;;;8303976;28;20292;-69
2022/07/12 12:10:17;;;;;;;0.33;0.13;;;22.60;1.00;;;;;;8306833;28;20270;-65
2022/07/12 12:14:18;;;;;;;1.17;0.40;;;22.90;1.00;;;;;;8335648;28;20337;-71
2022/07/12 12:18:36;;;;;;;0.83;0.27;;;23.50;1.00;;;;;;8337699;28;20202;-64
2022/07/12 12:22:38;;;;;;;0.40;0.20;;;23.90;1.00;;;;;;8309976;28;20282;-64
2022/07/12 12:26:39;;;;;;;0.67;0.20;;;23.90;1.00;;;;;;8305299;28;20205;-67
2022/07/12 12:30:56;;;;;;;0.70;0.30;;;24.20;1.00;;;;;;8338876;28;20190;-68
2022/07/12 12:35:10;;;;;;;1.90;0.23;;;24.40;1.00;;;;;;8308270;28;20301;-68
2022/07/12 12:39:11;;;;;;;1.07;0.20;;;24.80;1.00;;;;;;8310387;28;20229;-67
2022/07/12 12:43:13;;;;;;;0.90;0.30;;;25.20;1.00;;;;;;8333893;28;20187;-67
2022/07/12 12:47:34;;;;;;;0.37;0.20;;;25.00;1.00;;;;;;8302602;28;20197;-62
2022/07/12 12:51:58;;;;;;;0.83;0.10;;;24.40;1.00;;;;;;8302287;28;20619;-65
2022/07/12 12:55:59;;;;;;;0.47;0.20;;;24.30;1.00;;;;;;8332343;28;20219;-65
2022/07/12 12:59:59;;;;;;;3.47;0.30;;;23.90;1.00;;;;;;8301569;28;20213;-64
2022/07/12 13:04:00;;;;;;;2.37;0.30;;;23.70;1.00;;;;;;8328239;28;20191;-65
2022/07/12 13:08:02;;;;;;;1.90;0.30;;;23.30;1.00;;;;;;8334733;28;20210;-67
2022/07/12 13:12:04;;;;;;;0.50;0.30;;;23.50;1.00;;;;;;8335095;28;20187;-64
2022/07/12 13:16:05;;;;;;;0.60;0.20;;;23.90;1.00;;;;;;8298968;28;20222;-66
2022/07/12 13:20:07;;;;;;;0.83;0.20;;;24.50;1.00;;;;;;8300330;28;20236;-67
2022/07/12 13:24:08;;;;;;;0.40;0.20;;;24.80;1.00;;;;;;8296728;28;20206;-67
2022/07/12 13:28:10;;;;;;;1.23;0.30;;;24.50;1.00;;;;;;8302750;28;20360;-67
2022/07/12 13:32:11;;;;;;;0.77;0.40;;;24.10;1.00;;;;;;8329653;28;20241;-63
2022/07/12 13:36:12;;;;;;;1.73;0.40;;;23.80;1.00;;;;;;8336370;28;20226;-65
2022/07/12 13:40:16;;;;;;;0.30;0.13;;;24.10;1.00;;;;;;8302076;28;20222;-65
2022/07/12 13:44:17;;;;;;;0.83;0.20;;;24.10;1.00;;;;;;8295477;28;20484;-66
2022/07/12 13:48:18;;;;;;;0.97;0.20;;;24.50;1.00;;;;;;8297652;28;20198;-67
2022/07/12 13:52:19;;;;;;;2.73;0.47;;;24.60;1.00;;;;;;8333315;28;20248;-69
2022/07/12 13:56:20;;;;;;;0.70;0.20;;;24.70;1.00;;;;;;8326022;28;20218;-65
2022/07/12 14:00:21;;;;;;;4.50;0.30;;;25.00;1.00;;;;;;8300716;28;20222;-67
2022/07/12 14:04:22;;;;;;;1.77;0.23;;;25.00;1.00;;;;;;8299497;28;20210;-65
2022/07/12 14:08:22;;;;;;;1.07;0.40;;;25.00;1.00;;;;;;8298795;28;20290;-65
2022/07/12 14:12:23;;;;;;;0.70;0.30;;;24.90;1.00;;;;;;8298622;28;20338;-67
2022/07/12 14:16:24;;;;;;;2.27;0.57;;;25.00;1.00;;;;;;8336981;28;20277;-67
2022/07/12 14:20:25;;;;;;;1.07;0.30;;;25.20;1.00;;;;;;8332194;28;20197;-68
2022/07/12 14:24:26;;;;;;;0.60;0.20;;;25.30;1.00;;;;;;8307533;28;20278;-66
2022/07/12 14:28:26;;;;;;;1.50;0.30;;;25.70;1.00;;;;;;8311093;28;20194;-65
2022/07/12 14:32:27;;;;;;;1.27;0.50;;;25.40;1.00;;;;;;8334819;28;20183;-63
2022/07/12 14:36:28;;;;;;;1.00;0.50;;;25.20;1.00;;;;;;8334181;28;20237;-66
2022/07/12 14:40:29;;;;;;;0.70;0.30;;;25.10;1.00;;;;;;8308719;28;20190;-67
2022/07/12 14:44:30;;;;;;;0.70;0.20;;;25.10;1.00;;;;;;8306210;28;20221;-68
2022/07/12 14:48:31;;;;;;;1.83;0.30;;;24.90;1.00;;;;;;8306370;28;20194;-66
2022/07/12 14:52:32;;;;;;;0.40;0.20;;;25.00;1.00;;;;;;8305981;28;20222;-67
2022/07/12 14:56:33;;;;;;;1.10;0.30;;;25.40;1.00;;;;;;8305397;28;20210;-64
2022/07/12 15:00:33;;;;;;;1.50;0.40;;;25.60;1.00;;;;;;8306179;28;20191;-65
2022/07/12 15:04:34;;;;;;;2.33;0.30;;;25.20;1.00;;;;;;8306449;28;20297;-67
2022/07/12 15:08:35;;;;;;;0.57;0.23;;;25.30;1.00;;;;;;8309668;28;20664;-67
2022/07/12 15:12:36;;;;;;;0.60;0.20;;;25.20;1.00;;;;;;8303659;28;20246;-66
2022/07/12 15:16:37;;;;;;;1.33;0.27;;;25.20;1.00;;;;;;8303285;28;20218;-68
2022/07/12 15:20:37;;;;;;;0.73;0.30;;;25.20;1.00;;;;;;8305729;28;20187;-64
2022/07/12 15:24:39;;;;;;;0.50;0.23;;;24.80;1.00;;;;;;8301101;28;20195;-66
2022/07/12 15:28:59;;;;;;;0.63;0.20;;;24.90;1.00;;;;;;8308645;28;20597;-67
2022/07/12 15:33:00;;;;;;;0.50;0.30;;;24.70;1.00;;;;;;8337046;28;20198;-66
2022/07/12 15:37:00;;;;;;;1.67;0.60;;;24.50;1.00;;;;;;8302212;28;20191;-68
2022/07/12 15:41:01;;;;;;;0.50;0.20;;;24.80;1.00;;;;;;8305588;28;20223;-68
2022/07/12 15:45:03;;;;;;;0.70;0.30;;;25.00;1.00;;;;;;8303958;28;20213;-68
2022/07/12 15:49:05;;;;;;;0.40;0.20;;;24.80;1.00;;;;;;8329568;28;20198;-66
2022/07/12 15:57:25;;;;;;;2.10;0.30;;;24.20;1.00;;;;;;8303253;28;20193;-66
2022/07/12 16:01:25;;;;;;;0.77;0.20;;;24.20;1.00;;;;;;8333920;28;20199;-67
2022/07/12 16:05:26;;;;;;;0.90;0.23;;;24.50;1.00;;;;;;8300751;28;20236;-63
2022/07/12 16:09:28;;;;;;;1.67;0.33;;;24.80;1.00;;;;;;8304727;28;20202;-66
2022/07/12 16:13:32;;;;;;;0.77;0.20;;;25.30;1.00;;;;;;8331973;28;20301;-66
2022/07/12 16:17:33;;;;;;;1.07;0.40;;;25.40;1.00;;;;;;8335095;28;20186;-66
2022/07/12 16:21:34;;;;;;;1.20;0.30;;;25.30;1.00;;;;;;8328741;28;20186;-67
2022/07/12 16:25:35;;;;;;;1.13;0.40;;;25.20;1.00;;;;;;8302612;28;20268;-66
2022/07/12 16:29:36;;;;;;;0.63;0.30;;;24.50;1.00;;;;;;8306375;28;20214;-65
2022/07/12 16:33:37;;;;;;;1.00;0.50;;;24.30;1.00;;;;;;8306200;28;20631;-67
2022/07/12 16:37:37;;;;;;;1.47;0.30;;;24.00;1.00;;;;;;8329632;28;20508;-66
2022/07/12 16:41:38;;;;;;;2.30;0.40;;;23.80;1.00;;;;;;8334828;28;20199;-65
2022/07/12 16:45:39;;;;;;;1.27;0.20;;;23.80;1.00;;;;;;8334304;28;20189;-68
2022/07/12 16:49:40;;;;;;;0.83;0.30;;;23.70;1.00;;;;;;8300351;28;20219;-66
2022/07/12 16:53:40;;;;;;;2.93;0.40;;;23.60;1.00;;;;;;8338954;28;20321;-64
2022/07/12 16:57:41;;;;;;;0.90;0.50;;;23.70;1.00;;;;;;8333063;28;20580;-67
2022/07/12 17:01:43;;;;;;;1.10;0.50;;;23.80;1.00;;;;;;8298721;28;20195;-67
2022/07/12 17:05:43;;;;;;;0.83;0.43;;;23.90;1.00;;;;;;8330440;28;20213;-66
2022/07/12 17:09:44;;;;;;;3.73;0.87;;;23.80;1.00;;;;;;8329161;28;20195;-64
2022/07/12 17:13:46;;;;;;;3.07;0.80;;;23.60;1.00;;;;;;8320438;28;20249;-66
2022/07/12 17:17:46;;;;;;;2.63;0.80;;;23.40;1.00;;;;;;8301831;28;20195;-67
2022/07/12 17:21:47;;;;;;;1.93;1.47;;;23.40;1.00;;;;;;8333660;28;20186;-64
2022/07/12 17:25:48;;;;;;;1.93;1.40;;;23.70;1.00;;;;;;8305075;28;20205;-64
2022/07/12 17:29:49;;;;;;;1.73;1.13;;;24.20;1.00;;;;;;8306502;28;20504;-67
2022/07/12 17:33:52;;;;;;;3.27;1.13;;;24.70;1.00;;;;;;8333590;28;20226;-65
2022/07/12 17:37:53;;;;;;;1.80;1.00;;;25.00;1.00;;;;;;8303159;28;20183;-71
2022/07/12 17:41:54;;;;;;;3.47;1.30;;;25.10;1.00;;;;;;8334099;28;21241;-66
2022/07/12 17:45:54;;;;;;;3.00;1.20;;;25.40;1.00;;;;;;8330546;28;20209;-64
2022/07/12 17:49:55;;;;;;;1.77;1.10;;;25.30;1.00;;;;;;8341855;28;20197;-64
2022/07/12 17:53:56;;;;;;;1.90;1.13;;;24.90;1.00;;;;;;8321444;28;20278;-66
2022/07/12 18:02:17;;;;;;;2.13;0.97;;;24.70;1.00;;;;;;8308058;28;20332;-66
2022/07/12 18:06:18;;;;;;;1.83;1.30;;;25.10;1.00;;;;;;8312078;28;20198;-66
2022/07/12 18:10:19;;;;;;;2.13;1.00;;;25.40;1.00;;;;;;8313959;28;20191;-69
2022/07/12 18:18:39;;;;;;;3.00;1.00;;;25.30;1.00;;;;;;8306759;28;20198;-66
2022/07/12 18:22:40;;;;;;;3.70;0.80;;;25.50;99.90;;;;;;8309313;28;20186;-65
2022/07/12 18:26:41;;;;;;;1.10;0.70;;;25.50;99.90;;;;;;8314528;28;20198;-64
2022/07/12 18:30:42;;;;;;;2.30;0.70;;;25.70;1.00;;;;;;8309990;28;20196;-64
2022/07/12 18:34:43;;;;;;;1.60;0.80;;;25.70;99.90;;;;;;8306715;28;20218;-67
2022/07/12 18:38:44;;;;;;;0.70;0.53;;;25.40;1.00;;;;;;8308354;28;20182;-67
2022/07/12 18:42:45;;;;;;;1.37;0.57;;;24.90;1.00;;;;;;8310294;28;20193;-66
2022/07/12 18:46:46;;;;;;;0.50;0.30;;;24.60;1.00;;;;;;8307687;28;20195;-67
2022/07/12 18:50:47;;;;;;;1.90;0.30;;;24.00;1.00;;;;;;8341018;28;20267;-64
2022/07/12 18:54:48;;;;;;;0.67;0.30;;;23.50;1.00;;;;;;8305720;28;20211;-63
2022/07/12 18:58:49;;;;;;;2.43;0.43;;;22.90;1.00;;;;;;8340232;28;20186;-64
2022/07/12 19:02:49;;;;;;;1.70;0.47;;;22.50;1.00;;;;;;8309576;28;20191;-64
2022/07/12 19:06:50;;;;;;;0.80;0.40;;;22.20;1.00;;;;;;8338696;28;20462;-64
2022/07/12 19:10:51;;;;;;;2.43;0.50;;;22.00;1.00;;;;;;8337444;28;20191;-64
2022/07/12 19:14:52;;;;;;;0.70;0.30;;;21.70;1.00;;;;;;8313024;28;20309;-65
2022/07/12 19:18:54;;;;;;;0.70;0.27;;;21.50;1.00;;;;;;8300918;28;20266;-63
2022/07/12 19:22:55;;;;;;;0.70;0.23;;;21.30;1.00;;;;;;8299340;28;20186;-63
2022/07/12 19:26:55;;;;;;;1.20;0.50;;;21.00;1.00;;;;;;8335039;28;20189;-62
2022/07/12 19:30:56;;;;;;;1.50;0.30;;;20.70;1.00;;;;;;8302181;28;20178;-63
2022/07/12 19:34:57;;;;;;;0.50;0.30;;;20.40;1.00;;;;;;8333764;28;20668;-63
2022/07/12 19:38:58;;;;;;;1.20;0.40;;;20.20;1.00;;;;;;8308155;28;20261;-63
2022/07/12 19:42:59;;;;;;;1.33;0.50;;;20.00;1.00;;;;;;8303499;28;20210;-63
2022/07/12 19:46:59;;;;;;;1.87;0.37;;;19.80;1.00;;;;;;8332019;28;20182;-63
2022/07/12 19:51:01;;;;;;;1.43;0.40;;;19.70;1.00;;;;;;8304879;28;20210;-65
2022/07/12 19:55:02;;;;;;;0.73;0.50;;;19.60;1.00;;;;;;8302494;28;20217;-67
2022/07/12 19:59:06;;;;;;;2.00;0.57;;;19.50;1.00;;;;;;8308241;28;20187;-64
2022/07/12 20:03:07;;;;;;;1.30;0.43;;;19.40;1.00;;;;;;8308342;28;20193;-64
2022/07/12 20:07:08;;;;;;;2.63;0.40;;;19.30;1.00;;;;;;8305678;28;20198;-65
2022/07/12 20:11:09;;;;;;;0.97;0.50;;;19.20;1.00;;;;;;8314832;28;20209;-66
2022/07/12 20:15:10;;;;;;;3.30;0.60;;;19.10;1.00;;;;;;8307233;28;20290;-64
2022/07/12 20:19:11;;;;;;;2.57;0.60;;;19.00;1.00;;;;;;8334279;28;20202;-65
2022/07/12 20:23:14;;;;;;;1.37;0.40;;;19.00;1.00;;;;;;8335888;28;20203;-66
2022/07/12 20:27:15;;;;;;;2.73;0.70;;;19.00;1.00;;;;;;8337803;28;20194;-63
2022/07/12 20:31:16;;;;;;;1.43;0.50;;;18.90;1.00;;;;;;8334767;28;20188;-65
2022/07/12 20:35:17;;;;;;;2.10;0.50;;;18.70;1.00;;;;;;8303154;28;20223;-64
2022/07/12 20:39:19;;;;;;;2.70;1.23;;;18.70;1.00;;;;;;8303489;28;20189;-63
2022/07/12 20:43:20;;;;;;;0.90;0.40;;;18.70;1.00;;;;;;8307396;28;20194;-63
2022/07/12 20:47:21;;;;;;;1.00;0.50;;;18.60;1.00;;;;;;8342451;28;20417;-68
2022/07/12 20:51:24;;;;;;;1.53;0.63;;;18.50;1.00;;;;;;8302670;28;20219;-64
2022/07/12 20:55:25;;;;;;;3.63;0.80;;;18.40;1.00;;;;;;8299716;28;20298;-64
2022/07/12 20:59:26;;;;;;;2.60;0.70;;;18.40;1.00;;;;;;8304213;28;20273;-67
2022/07/12 21:03:27;;;;;;;1.20;0.80;;;18.40;1.00;;;;;;8303798;28;20205;-67
2022/07/12 21:07:27;;;;;;;3.10;0.80;;;18.40;1.00;;;;;;8305099;28;20259;-66
2022/07/12 21:11:28;;;;;;;3.00;0.70;;;18.40;1.00;;;;;;8304363;28;20194;-64
2022/07/12 21:15:30;;;;;;;1.00;0.70;;;18.40;1.00;;;;;;8300830;28;20240;-63
2022/07/12 21:19:31;;;;;;;2.47;0.80;;;18.30;1.00;;;;;;8302708;28;20190;-69
2022/07/12 21:23:33;;;;;;;2.17;0.60;;;18.30;1.00;;;;;;8301707;28;20190;-64
2022/07/12 21:27:34;;;;;;;1.23;0.57;;;18.30;1.00;;;;;;8327303;28;20194;-66
2022/07/12 21:31:40;;;;;;;3.93;0.60;;;18.30;1.00;;;;;;8294197;28;20190;-64
2022/07/12 21:35:40;;;;;;;3.03;0.87;;;18.30;1.00;;;;;;8301000;28;20229;-64
2022/07/12 21:39:42;;;;;;;0.83;0.63;;;18.20;1.00;;;;;;8299509;28;20197;-64